Time;durP1;ratioP1;P1;durP2;ratioP2;P2;SDS_P1;SDS_P2;PMS_P1;PMS_P2;Temp;Humidity;BMP_temperature;BMP_pressure;BME280_temperature;BME280_humidity;BME280_pressure;Samples;Min_cycle;Max_cycle;Signal;HPM_P1;HPM_P2
2023/01/15 00:01:26;;;;;;;;;;;;;;;6.88;100.00;67538.69;6205216;23;19923;-79
2023/01/15 00:03:51;;;;;;;;;;;;;;;;;;6229526;23;19954;-80
2023/01/15 00:06:16;;;;;;;;;;;;;;;;;;6205084;23;19907;-80
2023/01/15 00:08:41;;;;;;;;;;;;;;;;;;6206042;23;19935;-80
2023/01/15 00:11:06;;;;;;;;;;;;;;;6.83;100.00;67528.31;6206536;23;19920;-79
2023/01/15 00:13:32;;;;;;;;;;;;;;;6.81;100.00;67531.31;6206645;23;19908;-81
2023/01/15 00:16:08;;;;;;;;;;;;;;;6.82;100.00;67527.19;6206235;23;20044;-79
2023/01/15 00:18:34;;;;;;;;;;;;;;;6.81;100.00;67531.31;6205808;23;19907;-81
2023/01/15 00:21:03;;;;;;;;;;;;;;;6.80;100.00;67524.91;6205015;23;19946;-78
2023/01/15 00:28:57;;;;;;;;;;;;;;;;;;6209727;23;19961;-80
2023/01/15 00:31:23;;;;;;;;;;;;;;;6.79;100.00;67523.78;6209888;23;19991;-80
2023/01/15 00:33:48;;;;;;;;;;;;;;;6.78;100.00;67527.94;6210738;23;19908;-80
2023/01/15 00:36:13;;;;;;;;;;;;;;;6.80;100.00;67522.25;6208327;23;19908;-80
2023/01/15 00:38:38;;;;;;;;;;;;;;;6.81;100.00;67526.03;6183519;23;19942;-81
2023/01/15 00:41:03;;;;;;;;;;;;;;;;;;6210424;23;19915;-81
2023/01/15 00:43:29;;;;;;;;;;;;;;;;;;6209683;23;19951;-81
2023/01/15 00:45:54;;;;;;;;;;;;;;;6.77;100.00;67526.81;6200639;23;19960;-81
2023/01/15 00:48:19;;;;;;;;;;;;;;;;;;6204906;23;20123;-80
2023/01/15 00:50:45;;;;;;;;;;;;;;;6.75;100.00;67519.25;6208328;22;20374;-81
2023/01/15 00:53:10;;;;;;;;;;;;;;;;;;6208192;23;19993;-79
2023/01/15 00:55:35;;;;;;;;;;;;;;;6.69;100.00;67513.03;6207342;22;19911;-81
2023/01/15 00:58:01;;;;;;;;;;;;;;;6.70;100.00;67514.19;6209235;23;19908;-81
2023/01/15 01:00:26;;;;;;;;;;;;;;;;;;6210033;23;19911;-81
2023/01/15 01:02:51;;;;;;;;;;;;;;;6.68;100.00;67511.34;6210732;23;20259;-80
2023/01/15 01:05:16;;;;;;;;;;;;;;;6.63;100.00;67510.97;6210702;23;19908;-81
2023/01/15 01:07:41;;;;;;;;;;;;;;;6.65;100.00;67505.31;6208378;22;20349;-79
2023/01/15 01:10:08;;;;;;;;;;;;;;;6.63;100.00;67505.69;6210840;23;20645;-80
2023/01/15 01:12:33;;;;;;;;;;;;;;;6.62;100.00;67504.53;6211052;22;20282;-82
2023/01/15 01:14:58;;;;;;;;;;;;;;;6.58;100.00;67500.59;6218930;23;19958;-79
2023/01/15 01:17:24;;;;;;;;;;;;;;;6.56;100.00;67503.63;6222223;22;20383;-80
2023/01/15 01:19:49;;;;;;;;;;;;;;;6.55;100.00;67497.19;6198515;23;19951;-79
2023/01/15 01:22:14;;;;;;;;;;;;;;;6.54;100.00;67496.63;6224525;23;19927;-79
2023/01/15 01:24:39;;;;;;;;;;;;;;;6.51;100.00;67498.53;6185703;23;19919;-81
2023/01/15 01:27:04;;;;;;;;;;;;;;;;;;6205693;22;20034;-80
2023/01/15 01:29:30;;;;;;;;;;;;;;;6.50;100.00;67488.88;6205133;23;19911;-80
2023/01/15 01:31:55;;;;;;;;;;;;;;;;;;6178825;23;19916;-80
2023/01/15 01:34:20;;;;;;;;;;;;;;;6.48;100.00;67500.44;6205393;23;19912;-79
2023/01/15 01:36:45;;;;;;;;;;;;;;;6.49;100.00;67490.97;6179072;23;20322;-79
2023/01/15 01:39:13;;;;;;;;;;;;;;;6.49;100.00;67490.41;6205873;23;19962;-78
2023/01/15 01:41:38;;;;;;;;;;;;;;;;;;6205557;23;19952;-79
2023/01/15 01:44:03;;;;;;;;;;;;;;;;;;6207663;23;19942;-79
2023/01/15 01:46:28;;;;;;;;;;;;;;;;;;6207919;23;19915;-79
2023/01/15 01:48:56;;;;;;;;;;;;;;;6.40;100.00;67485.53;6207934;23;20360;-79
2023/01/15 01:51:23;;;;;;;;;;;;;;;6.40;100.00;67480.81;6206632;23;19985;-79
2023/01/15 01:53:48;;;;;;;;;;;;;;;;;;6208042;23;19914;-82
2023/01/15 01:56:16;;;;;;;;;;;;;;;6.36;100.00;67475.69;6207469;23;19978;-81
2023/01/15 01:58:43;;;;;;;;;;;;;;;6.36;100.00;67475.69;6180836;23;19915;-79
2023/01/15 02:01:09;;;;;;;;;;;;;;;;;;6208887;23;19939;-79
2023/01/15 02:03:35;;;;;;;;;;;;;;;6.32;100.00;67472.31;6207875;23;19915;-79
2023/01/15 02:06:02;;;;;;;;;;;;;;;6.30;100.00;67469.50;6207509;23;19923;-81
2023/01/15 02:08:27;;;;;;;;;;;;;;;6.27;100.00;67466.69;6208198;23;19922;-79
2023/01/15 02:10:54;;;;;;;;;;;;;;;6.29;100.00;67473.66;6208349;23;19916;-79
2023/01/15 02:13:26;;;;;;;;;;;;;;;6.28;100.00;67472.53;6208657;23;20254;-81
2023/01/15 02:16:11;;;;;;;;;;;;;;;6.28;100.00;67467.81;6232581;23;19983;-79
2023/01/15 02:18:55;;;;;;;;;;;;;;;6.26;100.00;67465.53;6181034;23;20695;-78
2023/01/15 02:21:20;;;;;;;;;;;;;;;;;;6207257;23;19911;-81
2023/01/15 02:23:57;;;;;;;;;;;;;;;6.24;100.00;67462.69;6207520;23;19908;-79
2023/01/15 02:26:23;;;;;;;;;;;;;;;6.21;100.00;67459.88;6205997;23;20333;-78
2023/01/15 02:28:50;;;;;;;;;;;;;;;6.19;100.00;67457.63;6207322;23;19919;-81
2023/01/15 02:31:22;;;;;;;;;;;;;;;6.15;100.00;67463.09;6206607;23;19912;-79
2023/01/15 02:33:50;;;;;;;;;;;;;;;6.14;100.00;67457.25;6207833;23;19908;-78
2023/01/15 02:36:17;;;;;;;;;;;;;;;6.13;100.00;67450.84;6180487;23;19912;-79
2023/01/15 02:38:42;;;;;;;;;;;;;;;;;;6206295;23;19936;-78
2023/01/15 02:41:15;;;;;;;;;;;;;;;6.07;100.00;67444.63;6209250;23;19912;-79
2023/01/15 02:43:42;;;;;;;;;;;;;;;6.07;100.00;67449.91;6208037;23;19912;-80
2023/01/15 02:46:08;;;;;;;;;;;;;;;6.03;100.00;67440.09;6207661;23;20260;-79
2023/01/15 02:48:35;;;;;;;;;;;;;;;6.04;100.00;67440.66;6207667;23;19912;-79
2023/01/15 02:51:02;;;;;;;;;;;;;;;6.01;100.00;67432.56;6207272;23;19916;-79
2023/01/15 02:53:28;;;;;;;;;;;;;;;;;;6207248;23;20404;-79
2023/01/15 02:55:57;;;;;;;;;;;;;;;6.00;100.00;67444.06;6207640;23;19912;-80
2023/01/15 02:58:25;;;;;;;;;;;;;;;5.94;100.00;67435.22;6207221;23;20332;-78
2023/01/15 03:00:52;;;;;;;;;;;;;;;5.94;100.00;67429.94;6196968;22;19939;-79
2023/01/15 03:03:18;;;;;;;;;;;;;;;;;;6208483;23;19908;-79
2023/01/15 03:06:04;;;;;;;;;;;;;;;5.92;100.00;67427.63;6180108;23;20415;-80
2023/01/15 03:08:29;;;;;;;;;;;;;;;5.90;100.00;67430.69;6207393;23;19940;-79
2023/01/15 03:10:55;;;;;;;;;;;;;;;;;;6207600;23;20254;-79
2023/01/15 03:13:25;;;;;;;;;;;;;;;5.91;100.00;67425.97;6207909;23;19924;-80
2023/01/15 03:18:34;;;;;;;;;;;;;;;;;;6207304;23;19914;-79
2023/01/15 03:20:59;;;;;;;;;;;;;;;;;;6208110;23;20007;-79
2023/01/15 03:23:26;;;;;;;;;;;;;;;;;;6207061;23;19907;-79
2023/01/15 03:25:51;;;;;;;;;;;;;;;5.82;100.00;67421.63;6207262;23;20333;-79
2023/01/15 03:28:18;;;;;;;;;;;;;;;5.81;100.00;67420.50;6208269;23;19912;-80
2023/01/15 03:30:44;;;;;;;;;;;;;;;5.80;100.00;67419.38;6206850;23;19922;-80
2023/01/15 03:33:14;;;;;;;;;;;;;;;;;;6181311;23;19990;-79
2023/01/15 03:35:39;;;;;;;;;;;;;;;;;;6206344;23;20002;-80
2023/01/15 03:38:04;;;;;;;;;;;;;;;5.75;100.00;67408.44;6208735;23;19912;-79
2023/01/15 03:40:31;;;;;;;;;;;;;;;5.76;100.00;67414.84;6206920;23;19908;-81
2023/01/15 03:45:46;;;;;;;;;;;;;;;5.72;100.00;67410.31;6206456;23;20245;-81
2023/01/15 03:48:19;;;;;;;;;;;;;;;5.69;100.00;67401.66;6208069;23;19991;-78
2023/01/15 03:50:48;;;;;;;;;;;;;;;5.67;100.00;67405.25;6181030;23;20269;-81
2023/01/15 03:53:13;;;;;;;;;;;;;;;;;;6208196;23;19916;-81
2023/01/15 03:55:39;;;;;;;;;;;;;;;;;;6204439;23;19985;-82
2023/01/15 03:58:04;;;;;;;;;;;;;;;;;;6206510;23;19935;-82
2023/01/15 04:00:29;;;;;;;;;;;;;;;;;;6206295;23;19908;-82
2023/01/15 04:02:56;;;;;;;;;;;;;;;5.65;100.00;67403.53;6208322;23;19955;-81
2023/01/15 04:05:21;;;;;;;;;;;;;;;;;;6206115;23;19935;-82
2023/01/15 04:07:46;;;;;;;;;;;;;;;;;;6205011;23;19958;-81
2023/01/15 04:10:11;;;;;;;;;;;;;;;5.62;100.00;67394.88;6208580;23;19912;-80
2023/01/15 04:12:37;;;;;;;;;;;;;;;5.62;100.00;67394.88;6207326;23;19912;-81
2023/01/15 04:15:02;;;;;;;;;;;;;;;5.62;100.00;67400.16;6206251;23;19961;-80
2023/01/15 04:17:27;;;;;;;;;;;;;;;;;;6204601;23;19931;-80
2023/01/15 04:19:52;;;;;;;;;;;;;;;;;;6207263;23;20448;-81
2023/01/15 04:22:17;;;;;;;;;;;;;;;;;;6208459;23;20011;-81
2023/01/15 04:24:43;;;;;;;;;;;;;;;;;;6206198;23;19912;-81
2023/01/15 04:27:08;;;;;;;;;;;;;;;5.60;100.00;67399.97;6206520;23;19990;-81
2023/01/15 04:29:33;;;;;;;;;;;;;;;;;;6207099;23;19912;-82
2023/01/15 04:31:58;;;;;;;;;;;;;;;5.65;100.00;67403.53;6207847;23;19912;-81
2023/01/15 04:34:23;;;;;;;;;;;;;;;;;;6207355;23;19908;-81
2023/01/15 04:36:48;;;;;;;;;;;;;;;;;;6205778;23;19911;-81
2023/01/15 04:39:14;;;;;;;;;;;;;;;5.65;100.00;67398.25;6207274;23;19915;-80
2023/01/15 04:44:26;;;;;;;;;;;;;;;;;;6207422;23;19962;-81
2023/01/15 04:46:52;;;;;;;;;;;;;;;5.71;100.00;67401.28;6206134;23;19908;-80
2023/01/15 04:49:17;;;;;;;;;;;;;;;5.69;100.00;67412.22;6208513;23;19919;-82
2023/01/15 04:51:42;;;;;;;;;;;;;;;;;;6206755;23;19997;-81
2023/01/15 04:54:07;;;;;;;;;;;;;;;;;;6181844;23;19908;-81
2023/01/15 04:56:36;;;;;;;;;;;;;;;5.69;100.00;67401.66;6206535;23;19970;-81
2023/01/15 04:59:01;;;;;;;;;;;;;;;5.68;100.00;67400.53;6205873;23;19928;-81
2023/01/15 05:01:26;;;;;;;;;;;;;;;;;;6206008;23;19907;-81
2023/01/15 05:03:52;;;;;;;;;;;;;;;5.68;100.00;67406.38;6181512;23;20389;-82
2023/01/15 05:06:17;;;;;;;;;;;;;;;5.65;100.00;67403.53;6204884;23;19919;-81
2023/01/15 05:08:43;;;;;;;;;;;;;;;5.64;100.00;67396.56;6206579;23;19915;-81
2023/01/15 05:11:08;;;;;;;;;;;;;;;5.63;100.00;67396.00;6207585;23;20261;-81
2023/01/15 05:13:33;;;;;;;;;;;;;;;5.61;100.00;67398.44;6178862;23;19908;-81
2023/01/15 05:16:18;;;;;;;;;;;;;;;5.59;100.00;67390.94;6206313;23;19914;-81
2023/01/15 05:18:44;;;;;;;;;;;;;;;5.57;100.00;67389.22;6206750;23;19908;-81
2023/01/15 05:21:09;;;;;;;;;;;;;;;;;;6207798;23;19915;-81
2023/01/15 05:23:34;;;;;;;;;;;;;;;5.55;100.00;67394.91;6207913;23;19987;-82
2023/01/15 05:26:01;;;;;;;;;;;;;;;5.55;100.00;67394.91;6207972;23;19919;-81
2023/01/15 05:28:26;;;;;;;;;;;;;;;5.55;100.00;67392.25;6205865;23;19966;-81
2023/01/15 05:30:52;;;;;;;;;;;;;;;5.54;100.00;67385.84;6207872;23;20242;-81
2023/01/15 05:33:17;;;;;;;;;;;;;;;;;;6208362;23;20292;-82
2023/01/15 05:35:42;;;;;;;;;;;;;;;5.54;100.00;67391.13;6204965;23;19934;-81
2023/01/15 05:38:07;;;;;;;;;;;;;;;;;;6209514;23;19908;-78
2023/01/15 05:40:32;;;;;;;;;;;;;;;5.55;100.00;67386.97;6209337;23;19947;-82
2023/01/15 05:42:58;;;;;;;;;;;;;;;5.54;100.00;67391.13;6209579;23;19912;-82
2023/01/15 05:45:23;;;;;;;;;;;;;;;5.53;100.00;67390.00;6208982;23;19979;-81
2023/01/15 05:47:48;;;;;;;;;;;;;;;;;;6208008;23;20281;-83
2023/01/15 05:50:13;;;;;;;;;;;;;;;5.54;100.00;67391.13;6209264;23;19907;-82
2023/01/15 05:52:38;;;;;;;;;;;;;;;5.53;100.00;67392.63;6209122;23;19939;-82
2023/01/15 05:55:04;;;;;;;;;;;;;;;;;;6208478;23;19914;-82
2023/01/15 05:57:31;;;;;;;;;;;;;;;5.55;100.00;67391.66;6208113;23;19908;-81
2023/01/15 05:59:56;;;;;;;;;;;;;;;5.53;100.00;67384.16;6209442;23;19986;-81
2023/01/15 06:02:21;;;;;;;;;;;;;;;;;;6209468;23;19935;-78
2023/01/15 06:04:47;;;;;;;;;;;;;;;;;;6208719;23;19916;-81
2023/01/15 06:07:12;;;;;;;;;;;;;;;;;;6207483;23;19908;-81
2023/01/15 06:09:37;;;;;;;;;;;;;;;;;;6209111;23;19935;-82
2023/01/15 06:12:02;;;;;;;;;;;;;;;;;;6209300;23;19916;-81
2023/01/15 06:14:27;;;;;;;;;;;;;;;5.56;100.00;67388.09;6209666;23;19912;-81
2023/01/15 06:16:53;;;;;;;;;;;;;;;5.57;100.00;67386.59;6206386;23;19934;-82
2023/01/15 06:19:18;;;;;;;;;;;;;;;5.56;100.00;67396.00;6208399;23;19915;-81
2023/01/15 06:21:43;;;;;;;;;;;;;;;5.55;100.00;67386.97;6208234;23;19923;-82
2023/01/15 06:24:09;;;;;;;;;;;;;;;5.54;100.00;67390.56;6209807;23;19954;-81
2023/01/15 06:26:34;;;;;;;;;;;;;;;;;;6207739;23;20223;-81
2023/01/15 06:28:59;;;;;;;;;;;;;;;5.52;100.00;67390.91;6181559;23;19915;-82
2023/01/15 06:31:27;;;;;;;;;;;;;;;5.49;100.00;67388.09;6206953;23;19918;-81
2023/01/15 06:33:52;;;;;;;;;;;;;;;;;;6208095;23;20253;-81
2023/01/15 06:36:22;;;;;;;;;;;;;;;5.46;100.00;67381.50;6207926;23;20257;-82
2023/01/15 06:38:47;;;;;;;;;;;;;;;5.44;100.00;67374.53;6207711;23;19915;-81
2023/01/15 06:49:44;;;;;;;;;;;;;;;5.45;100.00;67380.94;6086016;23;19916;-81
2023/01/15 06:52:09;;;;;;;;;;;;;;;5.44;100.00;67374.53;6157134;23;19924;-81
2023/01/15 06:54:34;;;;;;;;;;;;;;;;;;6208636;23;19987;-81
2023/01/15 06:57:00;;;;;;;;;;;;;;;5.42;100.00;67378.13;6207268;23;19911;-83
2023/01/15 06:59:25;;;;;;;;;;;;;;;5.41;100.00;67376.44;6208524;23;19942;-82
2023/01/15 07:01:50;;;;;;;;;;;;;;;5.40;100.00;67375.28;6207803;23;20250;-82
2023/01/15 07:04:16;;;;;;;;;;;;;;;5.39;100.00;67374.72;6209542;23;20330;-81
2023/01/15 07:06:41;;;;;;;;;;;;;;;5.38;100.00;67373.59;6205232;23;19915;-81
2023/01/15 07:09:06;;;;;;;;;;;;;;;;;;6208315;23;19914;-79
2023/01/15 07:11:34;;;;;;;;;;;;;;;5.32;100.00;67361.56;6207640;23;19951;-81
2023/01/15 07:14:05;;;;;;;;;;;;;;;;;;6208552;23;19912;-82
2023/01/15 07:16:31;;;;;;;;;;;;;;;5.31;100.00;67359.84;6206892;23;19908;-82
2023/01/15 07:18:56;;;;;;;;;;;;;;;;;;6182339;23;20287;-82
2023/01/15 07:21:21;;;;;;;;;;;;;;;;;;6207862;23;19911;-82
2023/01/15 07:23:47;;;;;;;;;;;;;;;5.28;100.00;67367.56;6207710;23;19965;-79
2023/01/15 07:26:12;;;;;;;;;;;;;;;;;;6208528;23;19979;-81
2023/01/15 07:28:37;;;;;;;;;;;;;;;;;;6208545;23;19991;-81
2023/01/15 07:31:02;;;;;;;;;;;;;;;;;;6181392;23;19912;-82
2023/01/15 07:33:27;;;;;;;;;;;;;;;5.24;100.00;67352.50;6209614;23;19958;-82
2023/01/15 07:35:52;;;;;;;;;;;;;;;;;;6207763;23;19918;-82
2023/01/15 07:38:18;;;;;;;;;;;;;;;5.25;100.00;67353.06;6209049;23;20466;-81
2023/01/15 07:40:43;;;;;;;;;;;;;;;5.24;100.00;67359.88;6207473;23;19908;-82
2023/01/15 07:51:20;;;;;;;;;;;;;;;;;;6178699;23;20042;-81
2023/01/15 07:53:46;;;;;;;;;;;;;;;5.23;100.00;67356.09;6187950;23;20499;-82
2023/01/15 07:56:11;;;;;;;;;;;;;;;5.22;100.00;67354.97;6221403;23;19919;-82
2023/01/15 07:58:36;;;;;;;;;;;;;;;;;;6219773;23;19908;-82
2023/01/15 08:01:01;;;;;;;;;;;;;;;5.23;100.00;67356.66;6218304;23;19908;-82
2023/01/15 08:03:27;;;;;;;;;;;;;;;;;;6226463;23;19987;-83
2023/01/15 08:05:52;;;;;;;;;;;;;;;5.25;100.00;67353.06;6224037;23;20662;-81
2023/01/15 08:08:17;;;;;;;;;;;;;;;5.27;100.00;67360.63;6226105;23;19946;-82
2023/01/15 08:16:15;;;;;;;;;;;;;;;5.24;100.00;67351.94;6212246;23;20280;-81
2023/01/15 08:18:40;;;;;;;;;;;;;;;5.24;100.00;67359.88;6207384;23;19912;-81
2023/01/15 08:21:05;;;;;;;;;;;;;;;;;;6209501;23;20318;-81
2023/01/15 08:23:31;;;;;;;;;;;;;;;5.18;100.00;67351.56;6208116;23;19912;-82
2023/01/15 08:25:58;;;;;;;;;;;;;;;5.16;100.00;67349.31;6209278;23;19908;-82
2023/01/15 08:28:23;;;;;;;;;;;;;;;;;;6182850;23;19918;-81
2023/01/15 08:30:48;;;;;;;;;;;;;;;;;;6208704;23;19911;-82
2023/01/15 08:33:13;;;;;;;;;;;;;;;;;;6211698;23;20004;-81
2023/01/15 08:35:38;;;;;;;;;;;;;;;5.14;100.00;67347.03;6210824;23;19914;-82
2023/01/15 08:38:04;;;;;;;;;;;;;;;;;;6184081;23;19942;-82
2023/01/15 08:40:29;;;;;;;;;;;;;;;;;;6210012;23;19912;-82
2023/01/15 08:42:54;;;;;;;;;;;;;;;5.16;100.00;67343.47;6210367;23;19918;-81
2023/01/15 08:45:19;;;;;;;;;;;;;;;;;;6210546;23;19922;-80
2023/01/15 08:47:44;;;;;;;;;;;;;;;5.20;100.00;67355.91;6212667;23;19908;-81
2023/01/15 08:50:09;;;;;;;;;;;;;;;;;;6210860;23;19916;-81
2023/01/15 08:52:36;;;;;;;;;;;;;;;;;;6205966;23;19963;-80
2023/01/15 08:55:01;;;;;;;;;;;;;;;5.25;100.00;67358.34;6208539;23;19912;-81
2023/01/15 08:57:27;;;;;;;;;;;;;;;5.26;100.00;67360.03;6210942;23;20334;-81
2023/01/15 08:59:52;;;;;;;;;;;;;;;;;;6209928;23;20230;-82
2023/01/15 09:02:17;;;;;;;;;;;;;;;5.26;100.00;67362.13;6209963;23;19911;-80
2023/01/15 09:04:42;;;;;;;;;;;;;;;5.29;100.00;67362.88;6208662;23;19908;-82
2023/01/15 09:07:07;;;;;;;;;;;;;;;;;;6204664;23;19907;-81
2023/01/15 09:09:33;;;;;;;;;;;;;;;;;;6210397;23;19934;-81
2023/01/15 09:11:58;;;;;;;;;;;;;;;5.32;100.00;67360.97;6211831;23;19959;-78
2023/01/15 09:14:23;;;;;;;;;;;;;;;5.38;100.00;67373.03;6213495;23;19915;-81
2023/01/15 09:16:48;;;;;;;;;;;;;;;5.40;100.00;67375.84;6210964;23;19912;-81
2023/01/15 09:19:13;;;;;;;;;;;;;;;5.44;100.00;67379.81;6212902;23;19931;-81
2023/01/15 09:21:39;;;;;;;;;;;;;;;5.45;100.00;67380.38;6213615;23;19907;-79
2023/01/15 09:24:04;;;;;;;;;;;;;;;;;;6214106;23;19951;-81
2023/01/15 09:26:33;;;;;;;;;;;;;;;5.49;100.00;67388.09;6212402;23;19907;-81
2023/01/15 09:28:59;;;;;;;;;;;;;;;5.52;100.00;67383.56;6210024;23;19919;-81
2023/01/15 09:31:24;;;;;;;;;;;;;;;;;;6211991;23;19912;-80
2023/01/15 09:33:50;;;;;;;;;;;;;;;5.59;100.00;67396.75;6185867;23;20218;-82
2023/01/15 09:36:15;;;;;;;;;;;;;;;;;;6211911;23;19915;-81
2023/01/15 09:38:40;;;;;;;;;;;;;;;;;;6211709;23;19916;-80
2023/01/15 09:44:03;;;;;;;;;;;;;;;5.62;100.00;67399.59;6188563;23;19935;-81
2023/01/15 09:46:33;;;;;;;;;;;;;;;5.66;100.00;67404.66;6212087;23;19915;-81
2023/01/15 09:49:03;;;;;;;;;;;;;;;;;;6213588;23;19908;-80
2023/01/15 09:51:41;;;;;;;;;;;;;;;5.66;100.00;67404.66;6208236;23;19991;-81
2023/01/15 09:54:29;;;;;;;;;;;;;;;5.69;100.00;67409.56;6210425;23;20245;-81
2023/01/15 09:56:55;;;;;;;;;;;;;;;5.68;100.00;67401.09;6188533;23;19979;-81
2023/01/15 09:59:20;;;;;;;;;;;;;;;;;;6210025;23;19938;-81
2023/01/15 10:01:46;;;;;;;;;;;;;;;5.62;100.00;67400.16;6208757;23;19912;-80
2023/01/15 10:04:22;;;;;;;;;;;;;;;5.63;100.00;67400.72;6209422;23;19919;-81
2023/01/15 10:06:50;;;;;;;;;;;;;;;5.69;100.00;67406.94;6208672;23;20042;-78
2023/01/15 10:09:16;;;;;;;;;;;;;;;;;;6209725;23;19908;-80
2023/01/15 10:14:37;;;;;;;;;;;;;;;5.78;100.00;67411.81;6210485;23;19914;-81
2023/01/15 10:17:03;;;;;;;;;;;;;;;5.74;100.00;67407.88;6233283;23;20242;-81
2023/01/15 10:19:28;;;;;;;;;;;;;;;5.72;100.00;67405.59;6183851;23;19912;-82
2023/01/15 10:22:02;;;;;;;;;;;;;;;5.72;100.00;67405.03;6209276;23;19930;-81
2023/01/15 10:24:27;;;;;;;;;;;;;;;;;;6211984;23;19915;-78
2023/01/15 10:26:53;;;;;;;;;;;;;;;5.82;100.00;67416.34;6182908;23;19950;-81
2023/01/15 10:29:36;;;;;;;;;;;;;;;5.81;100.00;67423.13;6209092;23;19916;-80
2023/01/15 10:32:04;;;;;;;;;;;;;;;5.79;100.00;67413.53;6210894;23;19916;-81
2023/01/15 10:34:48;;;;;;;;;;;;;;;5.81;100.00;67415.78;6210991;23;19914;-81
2023/01/15 10:37:40;;;;;;;;;;;;;;;5.91;100.00;67434.44;6234105;23;19908;-80
2023/01/15 10:40:19;;;;;;;;;;;;;;;5.88;100.00;67423.69;6214289;23;19915;-81
2023/01/15 10:42:57;;;;;;;;;;;;;;;5.93;100.00;67434.09;6212700;23;19907;-81
2023/01/15 10:45:28;;;;;;;;;;;;;;;6.04;100.00;67446.53;6213042;23;19907;-81
2023/01/15 10:47:53;;;;;;;;;;;;;;;;;;6211943;23;19916;-81
2023/01/15 10:50:21;;;;;;;;;;;;;;;6.17;100.00;67454.81;6187778;23;19998;-81
2023/01/15 10:52:49;;;;;;;;;;;;;;;6.15;100.00;67452.53;6213630;23;19912;-80
2023/01/15 10:55:23;;;;;;;;;;;;;;;6.16;100.00;67453.66;6213463;23;20365;-82
2023/01/15 10:57:59;;;;;;;;;;;;;;;6.19;100.00;67462.34;6214269;23;19914;-81
2023/01/15 11:00:25;;;;;;;;;;;;;;;;;;6215245;23;19950;-81
2023/01/15 11:02:59;;;;;;;;;;;;;;;6.24;100.00;67470.63;6214234;23;19912;-81
2023/01/15 11:05:24;;;;;;;;;;;;;;;6.19;100.00;67462.91;6214198;23;19931;-82
2023/01/15 11:07:51;;;;;;;;;;;;;;;6.19;100.00;67457.63;6215129;23;20272;-81
2023/01/15 11:10:19;;;;;;;;;;;;;;;6.22;100.00;67465.75;6217171;23;20420;-78
2023/01/15 11:21:14;;;;;;;;;;;;;;;6.30;100.00;67478.00;6193961;23;19953;-81
2023/01/15 11:23:39;;;;;;;;;;;;;;;6.32;100.00;67477.59;6186436;23;19908;-80
2023/01/15 11:26:04;;;;;;;;;;;;;;;6.30;100.00;67470.06;6211929;23;19915;-82
2023/01/15 11:28:31;;;;;;;;;;;;;;;6.32;100.00;67479.69;6209076;23;19912;-81
2023/01/15 11:30:58;;;;;;;;;;;;;;;6.33;100.00;67480.81;6210303;23;19966;-81
2023/01/15 11:33:25;;;;;;;;;;;;;;;6.32;100.00;67472.31;6211695;23;19912;-81
2023/01/15 11:35:56;;;;;;;;;;;;;;;6.36;100.00;67476.28;6211070;23;20340;-82
2023/01/15 11:38:22;;;;;;;;;;;;;;;6.37;100.00;67477.41;6212700;23;19911;-81
2023/01/15 11:40:55;;;;;;;;;;;;;;;6.38;100.00;67478.53;6212565;23;20350;-81
2023/01/15 11:51:50;;;;;;;;;;;;;;;;;;6212224;23;19922;-82
2023/01/15 11:54:16;;;;;;;;;;;;;;;6.46;100.00;67487.03;6211193;23;19943;-81
2023/01/15 11:56:43;;;;;;;;;;;;;;;6.47;100.00;67488.16;6209840;23;19962;-81
2023/01/15 11:59:08;;;;;;;;;;;;;;;;;;6211136;23;19919;-81
2023/01/15 12:01:39;;;;;;;;;;;;;;;6.50;100.00;67491.53;6211057;23;20271;-81
2023/01/15 12:04:21;;;;;;;;;;;;;;;6.50;100.00;67491.53;6210243;23;20249;-81
2023/01/15 12:06:47;;;;;;;;;;;;;;;6.47;100.00;67488.16;6210366;23;19907;-81
2023/01/15 12:09:12;;;;;;;;;;;;;;;;;;6184955;23;19908;-78
2023/01/15 12:11:37;;;;;;;;;;;;;;;;;;6210555;23;19911;-81
2023/01/15 12:14:02;;;;;;;;;;;;;;;;;;6213142;23;20190;-81
2023/01/15 12:16:27;;;;;;;;;;;;;;;;;;6211210;23;19908;-81
2023/01/15 12:18:52;;;;;;;;;;;;;;;;;;6209710;23;19908;-81
2023/01/15 12:21:33;;;;;;;;;;;;;;;6.41;100.00;67481.94;6212011;23;19908;-80
2023/01/15 12:24:07;;;;;;;;;;;;;;;6.40;100.00;67485.53;6185214;23;19935;-81
2023/01/15 12:26:37;;;;;;;;;;;;;;;6.41;100.00;67489.84;6211694;23;19911;-81
2023/01/15 12:29:02;;;;;;;;;;;;;;;;;;6212513;23;19918;-81
2023/01/15 12:31:27;;;;;;;;;;;;;;;;;;6211034;23;19940;-79
2023/01/15 12:33:52;;;;;;;;;;;;;;;;;;6211376;23;20249;-81
2023/01/15 12:36:20;;;;;;;;;;;;;;;6.41;100.00;67481.94;6213002;23;19908;-81
2023/01/15 12:39:00;;;;;;;;;;;;;;;6.42;100.00;67488.34;6211699;23;19915;-82
2023/01/15 12:47:24;;;;;;;;;;;;;;;6.47;100.00;67493.44;6233196;23;20003;-82
2023/01/15 12:49:58;;;;;;;;;;;;;;;6.50;100.00;67496.81;6208781;23;19940;-82
2023/01/15 12:52:28;;;;;;;;;;;;;;;6.51;100.00;67493.25;6197195;23;19912;-81
2023/01/15 12:54:53;;;;;;;;;;;;;;;;;;6212482;23;19919;-81
2023/01/15 12:57:18;;;;;;;;;;;;;;;;;;6185042;23;19908;-79
2023/01/15 12:59:43;;;;;;;;;;;;;;;;;;6210022;23;19908;-81
2023/01/15 13:02:16;;;;;;;;;;;;;;;6.51;100.00;67498.53;6207738;23;19930;-81
2023/01/15 13:04:41;;;;;;;;;;;;;;;6.49;100.00;67490.41;6208472;23;19935;-80
2023/01/15 13:07:06;;;;;;;;;;;;;;;;;;6210323;23;19919;-82
2023/01/15 13:09:31;;;;;;;;;;;;;;;;;;6208563;23;19912;-81
2023/01/15 13:11:57;;;;;;;;;;;;;;;6.50;100.00;67491.53;6211813;23;19919;-79
2023/01/15 13:14:22;;;;;;;;;;;;;;;;;;6213709;23;19958;-79
2023/01/15 13:16:50;;;;;;;;;;;;;;;6.48;100.00;67495.13;6182875;23;19962;-81
2023/01/15 13:19:24;;;;;;;;;;;;;;;6.44;100.00;67485.31;6209402;23;20642;-81
2023/01/15 13:21:51;;;;;;;;;;;;;;;6.39;100.00;67484.97;6209480;23;19912;-81
2023/01/15 13:24:22;;;;;;;;;;;;;;;6.36;100.00;67476.28;6210695;23;19915;-81
2023/01/15 13:26:47;;;;;;;;;;;;;;;6.32;100.00;67472.31;6182570;23;20330;-81
2023/01/15 13:29:13;;;;;;;;;;;;;;;;;;6209707;23;19934;-81
2023/01/15 13:31:39;;;;;;;;;;;;;;;;;;6209655;23;20220;-82
2023/01/15 13:34:04;;;;;;;;;;;;;;;;;;6211468;23;19914;-81
2023/01/15 13:36:36;;;;;;;;;;;;;;;6.20;100.00;67469.31;6183321;23;19948;-79
2023/01/15 13:39:02;;;;;;;;;;;;;;;6.09;100.00;67454.81;6209215;23;19908;-80
2023/01/15 13:44:19;;;;;;;;;;;;;;;6.03;100.00;67445.38;6188713;23;19954;-80
2023/01/15 13:46:45;;;;;;;;;;;;;;;;;;6184497;23;19923;-81
2023/01/15 13:49:10;;;;;;;;;;;;;;;;;;6210589;23;19915;-81
2023/01/15 13:51:42;;;;;;;;;;;;;;;6.08;100.00;67450.47;6211462;23;19923;-80
2023/01/15 13:54:18;;;;;;;;;;;;;;;6.10;100.00;67453.31;6211688;23;19939;-81
2023/01/15 13:56:44;;;;;;;;;;;;;;;6.12;100.00;67455.00;6209260;23;19912;-81
2023/01/15 13:59:09;;;;;;;;;;;;;;;;;;6214024;23;19915;-81
2023/01/15 14:01:38;;;;;;;;;;;;;;;6.13;100.00;67455.56;6187555;23;19908;-80
2023/01/15 14:04:12;;;;;;;;;;;;;;;6.14;100.00;67456.69;6171976;23;19922;-82
2023/01/15 14:06:37;;;;;;;;;;;;;;;;;;6148148;23;19908;-82
2023/01/15 14:09:04;;;;;;;;;;;;;;;;;;6132273;23;19954;-81
2023/01/15 14:11:36;;;;;;;;;;;;;;;6.11;100.00;67448.59;6149859;23;19912;-81
2023/01/15 14:14:01;;;;;;;;;;;;;;;;;;6150363;23;19908;-81
2023/01/15 14:16:27;;;;;;;;;;;;;;;;;;6150570;23;19999;-80
2023/01/15 14:19:01;;;;;;;;;;;;;;;6.10;100.00;67448.03;6148594;23;19916;-82
2023/01/15 14:21:30;;;;;;;;;;;;;;;6.12;100.00;67449.72;6122596;23;19975;-78
2023/01/15 14:23:57;;;;;;;;;;;;;;;6.14;100.00;67457.25;6146243;23;19947;-82
2023/01/15 14:26:39;;;;;;;;;;;;;;;6.12;100.00;67455.00;6148021;23;19908;-82
2023/01/15 14:29:24;;;;;;;;;;;;;;;6.07;100.00;67449.91;6173736;23;19912;-81
2023/01/15 14:31:50;;;;;;;;;;;;;;;;;;6183765;23;20482;-81
2023/01/15 14:34:15;;;;;;;;;;;;;;;;;;6212583;23;19908;-82
2023/01/15 14:36:40;;;;;;;;;;;;;;;;;;6211354;23;19983;-81
2023/01/15 14:39:17;;;;;;;;;;;;;;;6.00;100.00;67444.63;6213576;23;19908;-82
2023/01/15 14:44:26;;;;;;;;;;;;;;;;;;6215003;23;20289;-82
2023/01/15 14:46:57;;;;;;;;;;;;;;;5.58;100.00;67398.28;6212193;23;20321;-82
2023/01/15 14:49:48;;;;;;;;;;;;;;;5.53;100.00;67390.00;6214949;23;19908;-82
2023/01/15 14:52:14;;;;;;;;;;;;;;;5.44;100.00;67374.53;6179060;23;19939;-82
2023/01/15 14:54:42;;;;;;;;;;;;;;;5.31;100.00;67359.84;6216392;23;19911;-82
2023/01/15 14:57:07;;;;;;;;;;;;;;;;;;6192591;23;19918;-82
2023/01/15 14:59:32;;;;;;;;;;;;;;;5.13;100.00;67345.94;6220695;23;19931;-84
2023/01/15 15:01:57;;;;;;;;;;;;;;;;;;6218948;23;20033;-85
2023/01/15 15:04:35;;;;;;;;;;;;;;;5.00;100.00;67333.31;6218962;23;19912;-83
2023/01/15 15:07:00;;;;;;;;;;;;;;;;;;6184779;23;19912;-84